Time;durP1;ratioP1;P1;durP2;ratioP2;P2;SDS_P1;SDS_P2;PMS_P1;PMS_P2;Temp;Humidity;BMP_temperature;BMP_pressure;BME280_temperature;BME280_humidity;BME280_pressure;Samples;Min_cycle;Max_cycle;Signal;HPM_P1;HPM_P2
2022/10/31 00:01:41;;;;;;;9.75;7.70;;;;;;;;;;10027630;28;20058;-70
2022/10/31 00:06:36;;;;;;;14.27;9.35;;;;;;;;;;10028467;28;20527;-70
2022/10/31 00:11:30;;;;;;;9.95;6.82;;;;;;;;;;10027831;28;20510;-70
2022/10/31 00:16:25;;;;;;;11.93;7.65;;;;;;;;;;10028142;28;20057;-70
2022/10/31 00:21:18;;;;;;;12.15;8.30;;;;;;;;;;10027143;28;20402;-69
2022/10/31 00:26:11;;;;;;;14.75;7.68;;;;;;;;;;10028207;28;20052;-69
2022/10/31 00:31:06;;;;;;;12.15;6.43;;;;;;;;;;10026947;28;20428;-69
2022/10/31 00:36:02;;;;;;;8.77;7.00;;;;;;;;;;10027011;28;20046;-68
2022/10/31 00:40:55;;;;;;;16.50;8.35;;;;;;;;;;10027384;28;20038;-69
2022/10/31 00:45:49;;;;;;;8.15;6.85;;;;;;;;;;10026124;28;20081;-68
2022/10/31 00:50:43;;;;;;;10.55;6.60;;;;;;;;;;10026638;28;20050;-68
2022/10/31 00:55:37;;;;;;;12.60;6.72;;;;;;;;;;10026837;28;20042;-68
2022/10/31 01:00:30;;;;;;;17.35;7.45;;;;;;;;;;10025276;28;20471;-68
2022/10/31 01:05:24;;;;;;;9.23;7.72;;;;;;;;;;10025070;28;20424;-69
2022/10/31 01:10:17;;;;;;;13.90;8.52;;;;;;;;;;10023109;28;20057;-69
2022/10/31 01:15:13;;;;;;;17.25;7.80;;;;;;;;;;10022081;28;20057;-68
2022/10/31 01:20:11;;;;;;;12.80;7.68;;;;;;;;;;10023592;28;20046;-70
2022/10/31 01:25:04;;;;;;;11.40;7.53;;;;;;;;;;10023529;28;20081;-69
2022/10/31 01:29:57;;;;;;;13.10;8.02;;;;;;;;;;10025120;28;20432;-69
2022/10/31 01:34:50;;;;;;;16.35;7.30;;;;;;;;;;10023609;28;20041;-70
2022/10/31 01:39:44;;;;;;;8.88;6.82;;;;;;;;;;10026097;28;20045;-70
2022/10/31 01:44:37;;;;;;;9.93;5.65;;;;;;;;;;10026606;28;20100;-69
2022/10/31 01:49:39;;;;;;;8.80;5.93;;;;;;;;;;10026187;28;20042;-69
2022/10/31 01:54:38;;;;;;;15.05;6.07;;;;;;;;;;10033232;28;20073;-70
2022/10/31 01:59:33;;;;;;;7.53;5.55;;;;;;;;;;10033157;28;20042;-70
2022/10/31 02:04:27;;;;;;;8.25;5.40;;;;;;;;;;10031334;28;20056;-69
2022/10/31 02:09:23;;;;;;;7.97;5.50;;;;;;;;;;10032478;28;20046;-69
2022/10/31 02:14:16;;;;;;;10.40;5.05;;;;;;;;;;10030976;28;20041;-69
2022/10/31 02:19:14;;;;;;;10.57;5.57;;;;;;;;;;10030848;28;20053;-69
2022/10/31 02:24:35;;;;;;;7.75;5.43;;;;;;;;;;10031001;28;20564;-69
2022/10/31 02:29:54;;;;;;;7.53;4.82;;;;;;;;;;10023982;28;20555;-70
2022/10/31 02:34:50;;;;;;;10.88;5.25;;;;;;;;;;10031146;28;20448;-69
2022/10/31 02:39:55;;;;;;;9.05;5.80;;;;;;;;;;10047057;28;20073;-69
2022/10/31 02:45:21;;;;;;;10.40;5.97;;;;;;;;;;10025618;28;20088;-69
2022/10/31 02:50:24;;;;;;;12.55;6.57;;;;;;;;;;9997637;28;20575;-68
2022/10/31 02:55:26;;;;;;;11.55;6.40;;;;;;;;;;10030103;28;20054;-68
2022/10/31 03:00:22;;;;;;;13.40;6.53;;;;;;;;;;10029229;28;20050;-68
2022/10/31 03:05:31;;;;;;;14.82;7.18;;;;;;;;;;10029226;28;20052;-68
2022/10/31 03:10:48;;;;;;;10.80;7.23;;;;;;;;;;10030611;28;20141;-68
2022/10/31 03:15:44;;;;;;;11.73;6.28;;;;;;;;;;10030417;28;20141;-67
2022/10/31 03:20:40;;;;;;;11.45;6.13;;;;;;;;;;10028935;28;20057;-67
2022/10/31 03:25:36;;;;;;;11.20;5.93;;;;;;;;;;10028723;28;20049;-67
2022/10/31 03:30:30;;;;;;;10.77;5.93;;;;;;;;;;10028356;28;20144;-68
2022/10/31 03:35:24;;;;;;;10.60;6.10;;;;;;;;;;10028087;28;20064;-70
2022/10/31 03:40:19;;;;;;;8.77;6.07;;;;;;;;;;10028968;28;20120;-69
2022/10/31 03:45:17;;;;;;;14.02;6.72;;;;;;;;;;10060312;28;20064;-68
2022/10/31 03:50:12;;;;;;;14.50;6.50;;;;;;;;;;10027052;28;20050;-68
2022/10/31 03:55:18;;;;;;;13.85;8.07;;;;;;;;;;10011233;28;20052;-68
2022/10/31 04:00:13;;;;;;;15.75;7.68;;;;;;;;;;10027346;28;20084;-68
2022/10/31 04:05:09;;;;;;;8.63;6.10;;;;;;;;;;10026956;28;20080;-68
2022/10/31 04:10:06;;;;;;;12.40;6.90;;;;;;;;;;10044135;28;20058;-68
2022/10/31 04:14:59;;;;;;;11.07;5.55;;;;;;;;;;10026715;28;20046;-68
2022/10/31 04:19:52;;;;;;;10.10;6.53;;;;;;;;;;10009632;28;20483;-68
2022/10/31 04:24:46;;;;;;;14.38;6.00;;;;;;;;;;10026857;28;20386;-68
2022/10/31 04:29:42;;;;;;;8.13;5.47;;;;;;;;;;10027417;28;20066;-68
2022/10/31 04:34:40;;;;;;;9.63;5.57;;;;;;;;;;10026858;28;20092;-68
2022/10/31 04:39:33;;;;;;;11.90;6.38;;;;;;;;;;10026802;28;20054;-68
2022/10/31 04:44:45;;;;;;;10.80;5.82;;;;;;;;;;10027635;28;20061;-68
2022/10/31 04:49:39;;;;;;;8.30;5.90;;;;;;;;;;10039905;28;20108;-69
2022/10/31 04:54:35;;;;;;;10.23;6.80;;;;;;;;;;10025832;28;20046;-68
2022/10/31 04:59:47;;;;;;;11.82;6.88;;;;;;;;;;10020077;28;20073;-68
2022/10/31 05:04:41;;;;;;;13.18;7.20;;;;;;;;;;10024680;28;20140;-67
2022/10/31 05:09:35;;;;;;;14.45;7.53;;;;;;;;;;10040592;28;20412;-68
2022/10/31 05:14:29;;;;;;;15.63;7.53;;;;;;;;;;10024888;28;20095;-68
2022/10/31 05:19:40;;;;;;;9.68;6.97;;;;;;;;;;10016683;28;20053;-67
2022/10/31 05:24:57;;;;;;;15.00;7.50;;;;;;;;;;10018263;28;20077;-67
2022/10/31 05:29:50;;;;;;;11.55;7.32;;;;;;;;;;10024544;28;20060;-68
2022/10/31 05:34:43;;;;;;;10.02;6.57;;;;;;;;;;10024927;28;20085;-68
2022/10/31 05:39:55;;;;;;;8.73;5.90;;;;;;;;;;10041934;28;20046;-68
2022/10/31 05:44:48;;;;;;;10.07;6.40;;;;;;;;;;10018298;28;20060;-68
2022/10/31 05:49:48;;;;;;;10.45;6.32;;;;;;;;;;10031619;28;20065;-68
2022/10/31 05:55:01;;;;;;;12.50;6.15;;;;;;;;;;10017029;28;20401;-69
2022/10/31 05:59:54;;;;;;;17.65;6.45;;;;;;;;;;10022198;28;20442;-68
2022/10/31 06:04:49;;;;;;;18.60;7.07;;;;;;;;;;10019816;28;20097;-68
2022/10/31 06:09:43;;;;;;;15.77;5.88;;;;;;;;;;10021084;28;20046;-68
2022/10/31 06:14:37;;;;;;;7.13;5.47;;;;;;;;;;10014507;28;20042;-68
2022/10/31 06:19:31;;;;;;;7.60;5.25;;;;;;;;;;10031518;28;20053;-67
2022/10/31 06:24:25;;;;;;;10.48;5.68;;;;;;;;;;10034382;28;20654;-70
2022/10/31 06:29:19;;;;;;;16.30;5.88;;;;;;;;;;10019919;28;20069;-69
2022/10/31 06:34:33;;;;;;;16.33;6.78;;;;;;;;;;10018304;28;20112;-67
2022/10/31 06:39:26;;;;;;;12.95;7.70;;;;;;;;;;10016193;28;20093;-71
2022/10/31 06:44:20;;;;;;;10.75;6.25;;;;;;;;;;10015146;28;20481;-67
2022/10/31 06:49:40;;;;;;;20.20;7.93;;;;;;;;;;10028245;28;20050;-68
2022/10/31 06:54:38;;;;;;;16.53;5.97;;;;;;;;;;10028517;28;20112;-66
2022/10/31 06:59:31;;;;;;;14.43;5.78;;;;;;;;;;10029163;28;20144;-69
2022/10/31 07:04:45;;;;;;;6.57;5.00;;;;;;;;;;10024738;28;20058;-67
2022/10/31 07:09:40;;;;;;;9.40;7.00;;;;;;;;;;10029268;28;20046;-68
2022/10/31 07:14:34;;;;;;;8.65;4.80;;;;;;;;;;10028016;28;20046;-71
2022/10/31 07:19:28;;;;;;;16.27;6.22;;;;;;;;;;10028888;28;20104;-68
2022/10/31 07:24:22;;;;;;;8.63;5.90;;;;;;;;;;10028910;28;20061;-69
2022/10/31 07:29:34;;;;;;;9.82;6.18;;;;;;;;;;10026678;28;20049;-71
2022/10/31 07:34:27;;;;;;;13.98;5.53;;;;;;;;;;10027861;28;20041;-73
2022/10/31 07:39:20;;;;;;;13.32;6.82;;;;;;;;;;10027535;28;20402;-69
2022/10/31 07:44:14;;;;;;;12.93;5.57;;;;;;;;;;10026247;28;20487;-68
2022/10/31 07:49:26;;;;;;;17.02;6.38;;;;;;;;;;10026325;28;20137;-69
2022/10/31 07:54:38;;;;;;;13.25;6.03;;;;;;;;;;10027166;28;20052;-69
2022/10/31 07:59:34;;;;;;;11.25;6.32;;;;;;;;;;10026299;28;20057;-69
2022/10/31 08:04:27;;;;;;;10.52;5.88;;;;;;;;;;10024101;28;20582;-69
2022/10/31 08:09:39;;;;;;;11.98;6.40;;;;;;;;;;10026348;28;20192;-69
2022/10/31 08:14:44;;;;;;;18.85;7.88;;;;;;;;;;10024750;28;20448;-69
2022/10/31 08:19:40;;;;;;;15.38;6.65;;;;;;;;;;10026372;28;20050;-69
2022/10/31 08:24:36;;;;;;;12.38;6.80;;;;;;;;;;10026194;28;20145;-68
2022/10/31 08:29:30;;;;;;;15.02;8.32;;;;;;;;;;10027013;28;20050;-69
2022/10/31 08:34:24;;;;;;;9.98;7.85;;;;;;;;;;10026589;28;20105;-69
2022/10/31 08:39:36;;;;;;;15.00;10.52;;;;;;;;;;10027219;28;20060;-69
2022/10/31 08:44:30;;;;;;;17.02;8.32;;;;;;;;;;10026055;28;20460;-69
2022/10/31 08:49:23;;;;;;;20.40;7.35;;;;;;;;;;10042676;28;20084;-70
2022/10/31 08:54:17;;;;;;;14.65;6.00;;;;;;;;;;10025246;28;20060;-70
2022/10/31 08:59:19;;;;;;;11.13;6.72;;;;;;;;;;10024667;28;20416;-70
2022/10/31 09:04:41;;;;;;;16.00;5.95;;;;;;;;;;10026086;28;20045;-70
2022/10/31 09:09:35;;;;;;;10.15;6.22;;;;;;;;;;10025346;28;20523;-70
2022/10/31 09:14:28;;;;;;;16.95;8.18;;;;;;;;;;10018588;28;20133;-70
2022/10/31 09:19:45;;;;;;;15.40;8.85;;;;;;;;;;10024949;28;20057;-69
2022/10/31 09:24:39;;;;;;;14.63;9.43;;;;;;;;;;10025004;28;20057;-69
2022/10/31 09:29:32;;;;;;;11.73;7.40;;;;;;;;;;10026326;28;20041;-70
2022/10/31 09:34:28;;;;;;;14.55;8.32;;;;;;;;;;10024747;28;20095;-69
2022/10/31 09:39:31;;;;;;;12.65;6.97;;;;;;;;;;10023592;28;20084;-69
2022/10/31 09:45:06;;;;;;;11.90;8.70;;;;;;;;;;10024699;28;20074;-70
2022/10/31 09:50:07;;;;;;;;;;;;;;;;;;10008760;28;20049;-70
2022/10/31 09:55:17;;;;;;;16.50;9.13;;;;;;;;;;10024578;28;20340;-70
2022/10/31 10:00:21;;;;;;;18.50;8.93;;;;;;;;;;10007973;28;20056;-70
2022/10/31 10:05:22;;;;;;;16.90;9.63;;;;;;;;;;10020324;28;20132;-70
2022/10/31 10:10:25;;;;;;;18.05;9.93;;;;;;;;;;10025107;28;20144;-70
2022/10/31 10:16:06;;;;;;;24.92;10.70;;;;;;;;;;10031686;28;20054;-69
2022/10/31 10:21:27;;;;;;;15.55;9.07;;;;;;;;;;10031732;28;20085;-69
2022/10/31 10:26:22;;;;;;;19.88;8.73;;;;;;;;;;10033255;28;20695;-69
2022/10/31 10:31:20;;;;;;;14.27;9.57;;;;;;;;;;10032914;28;20513;-69
2022/10/31 10:36:38;;;;;;;26.33;9.87;;;;;;;;;;10031907;28;20060;-69
2022/10/31 10:41:33;;;;;;;19.48;10.02;;;;;;;;;;10029437;28;20050;-70
2022/10/31 10:52:03;;;;;;;18.93;11.70;;;;;;;;;;10020257;28;20062;-70
2022/10/31 10:57:28;;;;;;;22.40;11.02;;;;;;;;;;10031807;28;20134;-70
2022/10/31 11:02:27;;;;;;;34.20;11.75;;;;;;;;;;10030977;28;20057;-70
2022/10/31 11:07:21;;;;;;;14.60;11.82;;;;;;;;;;10030361;28;20567;-70
2022/10/31 11:12:31;;;;;;;23.45;11.05;;;;;;;;;;10029441;28;20054;-70
2022/10/31 11:17:33;;;;;;;16.85;12.60;;;;;;;;;;10030055;28;20081;-69
2022/10/31 11:22:27;;;;;;;19.90;11.43;;;;;;;;;;10030312;28;20408;-70
2022/10/31 11:27:23;;;;;;;27.42;12.18;;;;;;;;;;10030147;28;20053;-70
2022/10/31 11:32:20;;;;;;;19.55;13.45;;;;;;;;;;10030558;28;20058;-69
2022/10/31 11:37:16;;;;;;;22.70;13.70;;;;;;;;;;10029319;28;20088;-69
2022/10/31 11:42:10;;;;;;;26.27;13.45;;;;;;;;;;10027870;28;20061;-69
2022/10/31 11:47:05;;;;;;;28.05;13.45;;;;;;;;;;10029521;28;20555;-69
2022/10/31 11:52:21;;;;;;;30.95;14.23;;;;;;;;;;10028187;28;20136;-69
2022/10/31 11:57:25;;;;;;;28.83;15.50;;;;;;;;;;10028885;28;20484;-69
2022/10/31 12:02:19;;;;;;;25.40;12.88;;;;;;;;;;10027834;28;20057;-69
2022/10/31 12:07:13;;;;;;;25.25;13.77;;;;;;;;;;10028320;28;20092;-69
2022/10/31 12:12:29;;;;;;;21.73;12.90;;;;;;;;;;10016641;28;20064;-69
2022/10/31 12:17:28;;;;;;;31.08;13.55;;;;;;;;;;10027584;28;20050;-70
2022/10/31 12:22:34;;;;;;;26.25;14.73;;;;;;;;;;10027680;28;20054;-70
2022/10/31 12:27:26;;;;;;;28.73;15.00;;;;;;;;;;10026785;28;20064;-73
2022/10/31 12:32:46;;;;;;;22.58;13.45;;;;;;;;;;10041754;28;20502;-73
2022/10/31 12:37:54;;;;;;;23.52;14.57;;;;;;;;;;10025823;28;20061;-73
2022/10/31 12:43:10;;;;;;;29.53;13.27;;;;;;;;;;10025656;28;20129;-73
2022/10/31 12:48:24;;;;;;;24.90;13.00;;;;;;;;;;10027720;28;20054;-74
2022/10/31 12:53:38;;;;;;;21.13;12.75;;;;;;;;;;10026437;28;20054;-73
2022/10/31 12:58:39;;;;;;;23.15;13.65;;;;;;;;;;10024662;28;20413;-73
2022/10/31 13:04:06;;;;;;;21.67;12.93;;;;;;;;;;10026175;28;20049;-74
2022/10/31 13:09:01;;;;;;;17.70;13.65;;;;;;;;;;10024966;28;20057;-73
2022/10/31 13:14:06;;;;;;;19.38;12.95;;;;;;;;;;10022267;28;20046;-73
2022/10/31 13:19:42;;;;;;;26.75;15.02;;;;;;;;;;10026216;28;20090;-73
2022/10/31 13:24:40;;;;;;;30.38;14.32;;;;;;;;;;10025304;28;20054;-72
2022/10/31 13:29:37;;;;;;;28.65;15.05;;;;;;;;;;10025263;28;20108;-72
2022/10/31 13:34:41;;;;;;;22.83;14.40;;;;;;;;;;10022765;28;20084;-71
2022/10/31 13:39:54;;;;;;;20.33;12.93;;;;;;;;;;10021063;28;20058;-71
2022/10/31 13:44:48;;;;;;;19.38;12.93;;;;;;;;;;10023052;28;20104;-72
2022/10/31 13:49:41;;;;;;;21.63;12.45;;;;;;;;;;10037675;28;20075;-72
2022/10/31 13:54:35;;;;;;;27.23;14.38;;;;;;;;;;10039461;28;20053;-71
2022/10/31 13:59:31;;;;;;;22.25;13.43;;;;;;;;;;10038718;28;20588;-71
2022/10/31 14:04:32;;;;;;;30.27;14.35;;;;;;;;;;10039739;28;20777;-72
2022/10/31 14:09:32;;;;;;;21.13;13.13;;;;;;;;;;10037617;28;20496;-72
2022/10/31 14:14:32;;;;;;;28.20;13.15;;;;;;;;;;10038565;28;20547;-72
2022/10/31 14:19:27;;;;;;;24.40;12.93;;;;;;;;;;10031513;28;20061;-71
2022/10/31 14:24:23;;;;;;;23.50;14.13;;;;;;;;;;10030645;28;20088;-72
2022/10/31 14:29:16;;;;;;;25.63;14.90;;;;;;;;;;10039422;28;20057;-72
2022/10/31 14:34:31;;;;;;;24.90;13.68;;;;;;;;;;10038310;28;20058;-71
2022/10/31 14:40:00;;;;;;;25.65;14.05;;;;;;;;;;10036073;28;20042;-72
2022/10/31 14:45:02;;;;;;;26.83;13.32;;;;;;;;;;10037967;28;20080;-72
2022/10/31 14:50:11;;;;;;;20.35;13.63;;;;;;;;;;10038292;28;20052;-72
2022/10/31 14:55:07;;;;;;;26.30;13.13;;;;;;;;;;10038123;28;20056;-72
2022/10/31 15:00:07;;;;;;;23.45;14.50;;;;;;;;;;10033602;28;20056;-72
2022/10/31 15:05:01;;;;;;;23.30;13.70;;;;;;;;;;10030246;28;20062;-72
2022/10/31 15:09:58;;;;;;;23.73;13.57;;;;;;;;;;10029913;28;20049;-72
2022/10/31 15:14:53;;;;;;;24.83;12.77;;;;;;;;;;10020750;28;20070;-72
2022/10/31 15:19:48;;;;;;;21.17;12.23;;;;;;;;;;10030739;28;20057;-72
2022/10/31 15:24:45;;;;;;;34.53;14.48;;;;;;;;;;10031005;28;20070;-72
2022/10/31 15:29:49;;;;;;;24.67;14.00;;;;;;;;;;10030333;28;20050;-72
2022/10/31 15:34:43;;;;;;;27.88;16.50;;;;;;;;;;10029751;28;20050;-72
2022/10/31 15:39:37;;;;;;;28.27;16.85;;;;;;;;;;10030170;28;20141;-72
2022/10/31 15:44:36;;;;;;;40.15;17.98;;;;;;;;;;10030242;28;20073;-72
2022/10/31 15:49:36;;;;;;;34.83;18.42;;;;;;;;;;10033213;28;20571;-72
2022/10/31 15:54:30;;;;;;;27.80;16.85;;;;;;;;;;10030525;28;20133;-72
2022/10/31 15:59:26;;;;;;;30.15;17.55;;;;;;;;;;10028906;28;20050;-72
2022/10/31 16:04:24;;;;;;;31.23;16.75;;;;;;;;;;10044000;28;20097;-71
2022/10/31 16:09:22;;;;;;;29.17;15.98;;;;;;;;;;10028026;28;20449;-70
2022/10/31 16:14:26;;;;;;;27.17;15.25;;;;;;;;;;10027280;28;20496;-71
2022/10/31 16:19:31;;;;;;;25.88;15.13;;;;;;;;;;10026994;28;20081;-72
2022/10/31 16:24:28;;;;;;;27.10;15.48;;;;;;;;;;10027485;28;20480;-72
2022/10/31 16:29:43;;;;;;;36.47;15.30;;;;;;;;;;10027379;28;20073;-71
2022/10/31 16:34:37;;;;;;;34.35;16.17;;;;;;;;;;10027723;28;20054;-71
2022/10/31 16:39:31;;;;;;;30.13;15.60;;;;;;;;;;10027156;28;20050;-71
2022/10/31 16:44:25;;;;;;;30.08;15.35;;;;;;;;;;10025491;28;20054;-72
2022/10/31 16:49:20;;;;;;;22.25;16.23;;;;;;;;;;10023096;28;20551;-70
2022/10/31 16:54:14;;;;;;;31.60;15.93;;;;;;;;;;10021486;28;20080;-70
2022/10/31 16:59:11;;;;;;;28.63;16.63;;;;;;;;;;10024732;28;20058;-69
2022/10/31 17:04:10;;;;;;;39.47;16.75;;;;;;;;;;10024353;28;20057;-70
2022/10/31 17:09:04;;;;;;;34.42;14.15;;;;;;;;;;10024856;28;20080;-69
2022/10/31 17:13:58;;;;;;;28.77;15.98;;;;;;;;;;10026184;28;20069;-69
2022/10/31 17:18:53;;;;;;;31.55;15.60;;;;;;;;;;10025506;28;20060;-69
2022/10/31 17:23:48;;;;;;;30.13;15.63;;;;;;;;;;10025270;28;20057;-69
2022/10/31 17:28:41;;;;;;;39.05;15.32;;;;;;;;;;10027473;28;20058;-69
2022/10/31 17:33:35;;;;;;;37.08;18.13;;;;;;;;;;10027383;28;20053;-69
2022/10/31 17:38:29;;;;;;;35.53;19.42;;;;;;;;;;10026525;28;20050;-70
2022/10/31 17:43:25;;;;;;;46.58;18.38;;;;;;;;;;10026044;28;20057;-69
2022/10/31 17:48:19;;;;;;;38.20;18.77;;;;;;;;;;10025887;28;20080;-69
2022/10/31 17:53:12;;;;;;;32.42;17.73;;;;;;;;;;10025443;28;20053;-70
2022/10/31 17:58:06;;;;;;;29.55;18.90;;;;;;;;;;10026479;28;20053;-69
2022/10/31 18:03:02;;;;;;;35.28;16.90;;;;;;;;;;10025122;28;20132;-69
2022/10/31 18:07:57;;;;;;;34.65;19.77;;;;;;;;;;10025652;28;20046;-70
2022/10/31 18:12:56;;;;;;;34.30;19.85;;;;;;;;;;10025433;28;20138;-69
2022/10/31 18:17:50;;;;;;;29.27;19.90;;;;;;;;;;10023923;28;20042;-69
2022/10/31 18:22:45;;;;;;;30.10;19.23;;;;;;;;;;10025109;28;20058;-69
2022/10/31 18:27:39;;;;;;;39.00;19.83;;;;;;;;;;10025337;28;20567;-69
2022/10/31 18:32:35;;;;;;;33.55;20.02;;;;;;;;;;10026289;28;20112;-69
2022/10/31 18:37:29;;;;;;;30.27;18.20;;;;;;;;;;10031993;28;20049;-69
2022/10/31 18:42:22;;;;;;;34.95;20.90;;;;;;;;;;10032406;28;20497;-69
2022/10/31 18:47:18;;;;;;;31.23;20.02;;;;;;;;;;10031828;28;20076;-69
2022/10/31 18:52:12;;;;;;;35.45;20.35;;;;;;;;;;10031886;28;20045;-69
2022/10/31 18:57:05;;;;;;;38.65;22.60;;;;;;;;;;10032131;28;20087;-69
2022/10/31 19:02:00;;;;;;;36.40;24.75;;;;;;;;;;10032000;28;20115;-69
2022/10/31 19:06:55;;;;;;;37.15;22.63;;;;;;;;;;10031328;28;20073;-70
2022/10/31 19:11:50;;;;;;;34.65;23.65;;;;;;;;;;10031886;28;20092;-70
2022/10/31 19:16:44;;;;;;;29.10;21.73;;;;;;;;;;10030082;28;20062;-70
2022/10/31 19:21:38;;;;;;;37.78;23.13;;;;;;;;;;10031523;28;20062;-70
2022/10/31 19:26:32;;;;;;;39.33;23.70;;;;;;;;;;10031234;28;20060;-70
2022/10/31 19:31:27;;;;;;;31.65;20.52;;;;;;;;;;10030770;28;20468;-70
2022/10/31 19:36:21;;;;;;;38.35;21.17;;;;;;;;;;10030375;28;20046;-70
2022/10/31 19:41:20;;;;;;;34.47;23.55;;;;;;;;;;10030780;28;20060;-70
2022/10/31 19:46:18;;;;;;;34.88;23.33;;;;;;;;;;10028883;28;20691;-70
2022/10/31 19:51:32;;;;;;;33.42;22.38;;;;;;;;;;10029560;28;20056;-69
2022/10/31 19:56:25;;;;;;;37.85;22.48;;;;;;;;;;10029475;28;20497;-69
2022/10/31 20:01:21;;;;;;;39.50;22.27;;;;;;;;;;10027091;28;20058;-69
2022/10/31 20:06:28;;;;;;;36.20;20.90;;;;;;;;;;10027562;28;20485;-69
2022/10/31 20:11:23;;;;;;;30.48;22.05;;;;;;;;;;10028792;28;20062;-69
2022/10/31 20:16:16;;;;;;;34.70;21.77;;;;;;;;;;10028703;28;20046;-69
2022/10/31 20:21:19;;;;;;;35.70;22.23;;;;;;;;;;10028513;28;20064;-69
2022/10/31 20:26:16;;;;;;;32.53;22.98;;;;;;;;;;10018988;28;20046;-69
2022/10/31 20:31:16;;;;;;;34.72;22.48;;;;;;;;;;10028197;28;20420;-69
2022/10/31 20:36:13;;;;;;;40.30;22.90;;;;;;;;;;10023911;28;20077;-69
2022/10/31 20:41:10;;;;;;;42.33;25.48;;;;;;;;;;10028271;28;20100;-69
2022/10/31 20:46:09;;;;;;;45.65;25.73;;;;;;;;;;10027702;28;20050;-68
2022/10/31 20:51:07;;;;;;;40.22;20.50;;;;;;;;;;10026135;28;20469;-66
2022/10/31 20:56:01;;;;;;;30.92;22.67;;;;;;;;;;10019663;28;20049;-66
2022/10/31 21:00:58;;;;;;;37.08;24.25;;;;;;;;;;10022896;28;20084;-66
2022/10/31 21:06:00;;;;;;;30.95;20.88;;;;;;;;;;10017030;28;20600;-65
2022/10/31 21:10:53;;;;;;;34.47;20.77;;;;;;;;;;10014516;28;20049;-66
2022/10/31 21:15:48;;;;;;;27.83;21.17;;;;;;;;;;10012765;28;20054;-65
2022/10/31 21:20:42;;;;;;;30.60;19.23;;;;;;;;;;10017986;28;20532;-65
2022/10/31 21:25:40;;;;;;;30.55;21.02;;;;;;;;;;10013218;28;20080;-65
2022/10/31 21:30:44;;;;;;;28.30;18.35;;;;;;;;;;10018021;28;20046;-65
2022/10/31 21:35:38;;;;;;;27.67;17.38;;;;;;;;;;10019357;28;20058;-65
2022/10/31 21:40:32;;;;;;;31.83;15.60;;;;;;;;;;10035662;28;20053;-65
2022/10/31 21:45:26;;;;;;;22.50;15.40;;;;;;;;;;10020955;28;20469;-65
2022/10/31 21:50:21;;;;;;;20.85;14.10;;;;;;;;;;10019299;28;20065;-64
2022/10/31 21:55:14;;;;;;;18.10;13.13;;;;;;;;;;10019381;28;20137;-66
2022/10/31 22:00:11;;;;;;;20.35;12.40;;;;;;;;;;10014276;28;20072;-66
2022/10/31 22:05:06;;;;;;;21.65;11.73;;;;;;;;;;10025198;28;20124;-66
2022/10/31 22:10:01;;;;;;;30.63;12.43;;;;;;;;;;10030950;28;20050;-66
2022/10/31 22:14:55;;;;;;;17.85;11.40;;;;;;;;;;10033913;28;20046;-65
2022/10/31 22:19:49;;;;;;;19.67;11.55;;;;;;;;;;10033579;28;20589;-66
2022/10/31 22:24:43;;;;;;;24.13;13.25;;;;;;;;;;10031546;28;20058;-66
2022/10/31 22:29:36;;;;;;;23.05;12.48;;;;;;;;;;10032891;28;20042;-66
2022/10/31 22:34:30;;;;;;;15.07;10.07;;;;;;;;;;10032589;28;20060;-66
2022/10/31 22:39:24;;;;;;;16.13;10.10;;;;;;;;;;10031218;28;20136;-66
2022/10/31 22:44:18;;;;;;;15.93;11.13;;;;;;;;;;10031870;28;20075;-65
2022/10/31 22:49:15;;;;;;;15.45;9.13;;;;;;;;;;10032358;28;20054;-64
2022/10/31 22:54:12;;;;;;;11.80;7.50;;;;;;;;;;10030916;28;20107;-65
2022/10/31 22:59:05;;;;;;;14.60;9.20;;;;;;;;;;10031806;28;20062;-65
2022/10/31 23:04:01;;;;;;;9.02;7.97;;;;;;;;;;10029729;28;20050;-65
2022/10/31 23:08:54;;;;;;;16.90;7.80;;;;;;;;;;10030548;28;20085;-65
2022/10/31 23:14:08;;;;;;;18.63;8.93;;;;;;;;;;10031009;28;20046;-65
2022/10/31 23:19:06;;;;;;;14.30;8.80;;;;;;;;;;10029492;28;20460;-65
2022/10/31 23:24:00;;;;;;;13.63;7.95;;;;;;;;;;10026894;28;20555;-65
2022/10/31 23:28:54;;;;;;;15.35;7.53;;;;;;;;;;10030872;28;20042;-65
2022/10/31 23:33:48;;;;;;;10.82;7.55;;;;;;;;;;10030782;28;20073;-66
2022/10/31 23:38:41;;;;;;;37.88;7.07;;;;;;;;;;10020119;28;20541;-65
2022/10/31 23:43:35;;;;;;;12.38;6.53;;;;;;;;;;10029500;28;20123;-65
2022/10/31 23:48:28;;;;;;;12.32;8.48;;;;;;;;;;10029940;28;20056;-65
2022/10/31 23:53:22;;;;;;;12.15;9.35;;;;;;;;;;10029767;28;20081;-66
2022/10/31 23:58:16;;;;;;;19.48;8.13;;;;;;;;;;10028956;28;20057;-65
